Weather reports worldwide

Advertisment
Serralta di S. Vito, Italy (16364): temperature & dewpoint: 10.07.2018 18:00:00 - 16.07.2018 18:00:00 (CEST)Serralta di S. Vito, Italy (16364): wind speed: 10.07.2018 18:00:00 - 16.07.2018 18:00:00 (CEST)Serralta di S. Vito, Italy (16364): wind direction: 10.07.2018 18:00:00 - 16.07.2018 18:00:00 (CEST)Serralta di S. Vito, Italy (16364): precipitation: 10.07.2018 18:00:00 - 16.07.2018 18:00:00 (CEST)
Date & Time tt [°C] td [°C] ff [km/h] ff [kn] dd rr [mm]
16.07.2018 18:00:00 - - - - - -
16.07.2018 17:00:00 23,8 18,6 15 8 W -
16.07.2018 16:00:00 24,8 19,6 16 9 WSW -
16.07.2018 15:00:00 24,9 20,5 13 7 W -
16.07.2018 14:00:00 24,0 21,1 15 8 SW 0,0
16.07.2018 13:00:00 22,1 19,6 21 11 NW -
16.07.2018 12:00:00 20,8 18,3 18 10 W -
16.07.2018 11:00:00 20,1 17,6 22 12 WSW -
16.07.2018 10:00:00 19,8 17,3 24 13 W -
16.07.2018 09:00:00 20,6 17,5 9 5 SW -
16.07.2018 08:00:00 21,2 17,5 2 1 SE 0,0
16.07.2018 07:00:00 20,5 17,6 5 3 WNW -
16.07.2018 06:00:00 17,3 14,9 9 5 W -
16.07.2018 05:00:00 17,5 15,1 13 7 W -
16.07.2018 04:00:00 17,7 15,3 21 11 SW -
16.07.2018 03:00:00 17,3 14,9 15 8 WSW -
16.07.2018 02:00:00 17,5 15,1 15 8 SW 0,0
16.07.2018 01:00:00 17,9 15,5 18 10 SW -
16.07.2018 00:00:00 17,9 15,5 22 12 WSW -
15.07.2018 23:00:00 18,2 15,8 24 13 W -
15.07.2018 22:00:00 18,4 15,9 22 12 WNW -
15.07.2018 21:00:00 19,2 16,7 24 13 WSW -
15.07.2018 20:00:00 19,5 17,0 18 10 W 0,0
15.07.2018 19:00:00 20,2 17,7 15 8 W -
15.07.2018 18:00:00 21,2 18,3 15 8 W -
15.07.2018 17:00:00 22,0 18,7 11 6 SW -
15.07.2018 16:00:00 23,7 19,8 11 6 WSW -
15.07.2018 15:00:00 24,2 20,3 11 6 WSW -
15.07.2018 14:00:00 26,0 21,6 9 5 SSW 0,0
15.07.2018 13:00:00 25,4 20,8 11 6 SSW -
15.07.2018 12:00:00 25,2 18,6 5 3 S -
15.07.2018 11:00:00 24,2 18,1 11 6 SE -
15.07.2018 10:00:00 23,7 17,8 8 4 E -
15.07.2018 09:00:00 22,9 17,7 5 3 E -
15.07.2018 08:00:00 21,5 16,4 13 7 E 0,0
15.07.2018 07:00:00 20,0 14,7 11 6 E -
15.07.2018 06:00:00 19,1 13,4 9 5 ENE -
15.07.2018 05:00:00 19,4 6,4 8 4 WNW -
15.07.2018 04:00:00 20,9 6,7 5 3 SW -
15.07.2018 03:00:00 19,8 9,0 9 5 SE -
15.07.2018 02:00:00 21,2 7,7 8 4 SE 0,0
15.07.2018 01:00:00 20,2 8,5 8 4 SE -
15.07.2018 00:00:00 20,5 7,8 5 3 SSE -
14.07.2018 23:00:00 19,4 11,9 9 5 WSW -
14.07.2018 22:00:00 18,7 11,9 13 7 SW -
14.07.2018 21:00:00 18,8 13,6 11 6 SW -
14.07.2018 20:00:00 20,2 14,5 8 4 SSW 0,0
14.07.2018 19:00:00 22,2 16,4 4 2 S -
14.07.2018 18:00:00 23,2 17,4 5 3 SSW -
14.07.2018 17:00:00 24,3 17,5 9 5 SW -
14.07.2018 16:00:00 24,8 18,2 11 6 SSW -
14.07.2018 15:00:00 24,4 18,0 11 6 W -
14.07.2018 14:00:00 24,0 17,9 16 9 WNW 0,0
14.07.2018 13:00:00 23,8 18,6 15 8 WNW -
14.07.2018 12:00:00 23,7 18,9 13 7 W -
14.07.2018 11:00:00 23,1 18,6 13 7 WSW -
14.07.2018 10:00:00 22,0 16,9 11 6 W -
14.07.2018 09:00:00 20,5 15,2 13 7 WNW -
14.07.2018 08:00:00 19,6 15,4 9 5 WNW 0,0
14.07.2018 07:00:00 18,0 13,8 5 3 W -
14.07.2018 06:00:00 17,1 11,5 9 5 WSW -
14.07.2018 05:00:00 18,4 12,6 8 4 W -
14.07.2018 04:00:00 18,5 12,2 5 3 W -
14.07.2018 03:00:00 17,8 12,0 8 4 NW -
14.07.2018 02:00:00 17,3 11,9 9 5 WNW 0,0
14.07.2018 01:00:00 16,5 11,4 9 5 WNW -
14.07.2018 00:00:00 17,2 11,4 13 7 WNW -
13.07.2018 23:00:00 17,6 11,1 16 9 WNW -
13.07.2018 22:00:00 17,3 11,1 16 9 WSW -
13.07.2018 21:00:00 17,2 11,2 16 9 WSW -
13.07.2018 20:00:00 19,2 12,8 15 8 W 0,0
13.07.2018 19:00:00 21,3 14,6 15 8 WNW -
13.07.2018 18:00:00 22,6 15,4 11 6 W -
13.07.2018 17:00:00 23,0 16,2 15 8 WNW -
13.07.2018 16:00:00 24,0 18,3 13 7 W -
13.07.2018 15:00:00 24,1 17,0 15 8 W -
13.07.2018 14:00:00 24,1 17,5 15 8 WSW 0,0
13.07.2018 13:00:00 23,9 17,8 16 9 W -
13.07.2018 12:00:00 23,0 17,6 18 10 W -
13.07.2018 11:00:00 22,1 16,5 21 11 W -
13.07.2018 10:00:00 21,1 16,0 16 9 WSW -
13.07.2018 09:00:00 19,8 14,5 18 10 WNW -
13.07.2018 08:00:00 18,7 13,5 16 9 W 0,0
13.07.2018 07:00:00 17,5 12,6 16 9 SW -
13.07.2018 06:00:00 16,6 11,7 16 9 W -
13.07.2018 05:00:00 16,6 11,5 21 11 W -
13.07.2018 04:00:00 16,5 11,4 21 11 W -
13.07.2018 03:00:00 16,6 11,3 18 10 WSW -
13.07.2018 02:00:00 16,8 11,7 16 9 W 0,0
13.07.2018 01:00:00 16,8 11,9 18 10 SW -
13.07.2018 00:00:00 16,9 12,0 22 12 W -
12.07.2018 23:00:00 16,5 12,4 18 10 W -
12.07.2018 22:00:00 16,2 12,3 21 11 W -
12.07.2018 21:00:00 16,4 13,2 16 9 WNW -
12.07.2018 20:00:00 18,0 14,0 15 8 WSW 0,0
12.07.2018 19:00:00 20,1 15,5 16 9 W -
12.07.2018 18:00:00 21,3 17,2 15 8 WNW -
12.07.2018 17:00:00 21,1 16,6 16 9 W -
12.07.2018 16:00:00 21,9 18,0 18 10 WSW -
12.07.2018 15:00:00 21,5 16,6 26 14 WSW -
12.07.2018 14:00:00 22,2 17,3 18 10 W 0,0
12.07.2018 13:00:00 22,1 16,7 18 10 W -
12.07.2018 12:00:00 21,7 16,6 21 11 W -
12.07.2018 11:00:00 21,0 15,7 21 11 WNW -
12.07.2018 10:00:00 20,0 14,7 16 9 WSW -
12.07.2018 09:00:00 18,7 13,0 15 8 WNW -
12.07.2018 08:00:00 17,3 11,9 13 7 W 0,0
12.07.2018 07:00:00 16,2 11,1 15 8 W -
12.07.2018 06:00:00 14,8 9,1 18 10 W -
12.07.2018 05:00:00 15,0 9,7 16 9 WSW -
12.07.2018 04:00:00 15,0 9,9 16 9 SW -
12.07.2018 03:00:00 15,0 10,8 16 9 WNW -
12.07.2018 02:00:00 15,4 11,4 15 8 W 0,0
12.07.2018 01:00:00 15,6 12,5 18 10 WSW -
12.07.2018 00:00:00 15,5 11,8 18 10 WSW -
11.07.2018 23:00:00 15,3 9,6 16 9 WSW -
11.07.2018 22:00:00 15,6 6,0 16 9 W -
11.07.2018 21:00:00 15,5 7,5 16 9 W -
11.07.2018 20:00:00 17,6 13,4 13 7 WNW 0,0
11.07.2018 19:00:00 20,5 14,1 9 5 W -
11.07.2018 18:00:00 21,3 15,3 13 7 WSW -
11.07.2018 17:00:00 22,5 17,3 15 8 SW -
11.07.2018 16:00:00 22,8 17,6 11 6 SSW -
11.07.2018 15:00:00 22,8 16,5 11 6 WSW -
11.07.2018 14:00:00 22,9 16,1 13 7 NW 0,0
11.07.2018 13:00:00 22,6 17,2 9 5 WSW -
11.07.2018 12:00:00 22,1 17,0 5 3 W -
11.07.2018 11:00:00 21,2 16,1 8 4 WNW -
11.07.2018 10:00:00 19,7 14,9 9 5 WSW -
11.07.2018 09:00:00 18,1 13,5 11 6 WSW -
11.07.2018 08:00:00 16,1 12,2 9 5 W 0,0
11.07.2018 07:00:00 14,1 10,9 11 6 W -
11.07.2018 06:00:00 12,8 9,8 11 6 WSW -
11.07.2018 05:00:00 13,1 9,9 13 7 W -
11.07.2018 04:00:00 12,8 10,0 11 6 WSW -
11.07.2018 03:00:00 13,1 10,4 11 6 W -
11.07.2018 02:00:00 13,6 11,3 13 7 WSW 0,0
11.07.2018 01:00:00 13,4 10,7 15 8 W -
11.07.2018 00:00:00 13,4 10,5 16 9 WSW -
10.07.2018 23:00:00 13,9 11,4 15 8 SW -
10.07.2018 22:00:00 13,6 10,6 11 6 W -
10.07.2018 21:00:00 15,5 12,8 9 5 W -
10.07.2018 20:00:00 16,6 12,9 15 8 W 0,0
10.07.2018 19:00:00 18,8 14,4 13 7 W -
10.07.2018 18:00:00 19,9 15,0 15 8 SW -

tt = temperature
td = dewpoint
ff = wind speed
dd = wind direction
rr = precipitation

Next stations